Time;durP1;ratioP1;P1;durP2;ratioP2;P2;SDS_P1;SDS_P2;PMS_P1;PMS_P2;Temp;Humidity;BMP_temperature;BMP_pressure;BME280_temperature;BME280_humidity;BME280_pressure;Samples;Min_cycle;Max_cycle;Signal;HPM_P1;HPM_P2
2022/06/28 00:00:45;;;;;;;14.65;6.45;;;;;;;;;;5069516;27;95389;-72
2022/06/28 00:03:12;;;;;;;8.75;6.25;;;;;;;;;;5067526;27;96664;-73
2022/06/28 00:05:38;;;;;;;15.27;6.85;;;;;;;;;;5067409;27;96609;-73
2022/06/28 00:08:04;;;;;;;10.50;6.10;;;;;;;;;;5067731;27;96859;-72
2022/06/28 00:10:31;;;;;;;13.10;6.13;;;;;;;;;;5067758;27;97251;-72
2022/06/28 00:12:59;;;;;;;8.75;5.90;;;;;;;;;;5067659;27;96184;-73
2022/06/28 00:18:31;;;;;;;13.90;6.68;;;;;;;;;;5004095;28;97773;-73
2022/06/28 00:20:58;;;;;;;10.40;6.80;;;;;;;;;;5004759;28;95444;-71
2022/06/28 00:23:24;;;;;;;11.02;6.40;;;;;;;;;;5034141;27;96719;-73
2022/06/28 00:25:51;;;;;;;9.88;6.82;;;;;;;;;;5068185;27;97340;-71
2022/06/28 00:28:17;;;;;;;10.63;6.53;;;;;;;;;;5069404;27;95342;-72
2022/06/28 00:30:43;;;;;;;15.32;6.40;;;;;;;;;;5069431;27;97083;-72
2022/06/28 00:33:09;;;;;;;15.25;6.65;;;;;;;;;;5066883;27;95578;-73
2022/06/28 00:35:36;;;;;;;13.30;6.95;;;;;;;;;;5067946;27;96762;-71
2022/06/28 00:38:05;;;;;;;13.93;7.00;;;;;;;;;;5066796;27;97731;-72
2022/06/28 00:40:33;;;;;;;12.25;6.85;;;;;;;;;;5065918;27;95799;-73
2022/06/28 00:42:59;;;;;;;10.38;6.35;;;;;;;;;;5066544;27;95750;-70
2022/06/28 00:45:26;;;;;;;13.10;7.30;;;;;;;;;;5066894;27;97261;-72
2022/06/28 00:47:54;;;;;;;11.00;6.65;;;;;;;;;;5056545;27;95979;-70
2022/06/28 00:50:21;;;;;;;15.27;6.82;;;;;;;;;;5066419;27;97804;-70
2022/06/28 00:53:06;;;;;;;17.20;6.50;;;;;;;;;;5066484;27;95490;-72
2022/06/28 00:55:34;;;;;;;19.40;7.32;;;;;;;;;;5067768;27;96754;-71
2022/06/28 00:58:02;;;;;;;11.38;6.80;;;;;;;;;;5067553;27;97032;-70
2022/06/28 01:00:28;;;;;;;14.77;6.25;;;;;;;;;;5067571;27;95728;-72
2022/06/28 01:02:55;;;;;;;16.50;7.35;;;;;;;;;;5062813;27;96800;-71
2022/06/28 01:05:22;;;;;;;10.30;6.80;;;;;;;;;;5059992;27;96886;-71
2022/06/28 01:07:49;;;;;;;10.00;6.97;;;;;;;;;;5067275;27;96803;-71
2022/06/28 01:10:15;;;;;;;11.73;7.20;;;;;;;;;;5071252;27;96445;-72
2022/06/28 01:12:41;;;;;;;14.93;7.13;;;;;;;;;;5065829;27;95559;-69
2022/06/28 01:15:08;;;;;;;24.50;6.78;;;;;;;;;;5062572;27;96927;-71
2022/06/28 01:17:35;;;;;;;13.75;7.30;;;;;;;;;;5064215;27;98864;-70
2022/06/28 01:20:01;;;;;;;11.65;7.50;;;;;;;;;;5068893;27;95338;-70
2022/06/28 01:22:29;;;;;;;10.38;7.10;;;;;;;;;;5071989;27;96796;-70
2022/06/28 01:24:56;;;;;;;9.60;6.10;;;;;;;;;;5071123;27;97090;-70
2022/06/28 01:27:23;;;;;;;11.30;6.60;;;;;;;;;;5069721;27;96354;-70
2022/06/28 01:29:49;;;;;;;10.63;7.00;;;;;;;;;;5068857;27;96630;-70
2022/06/28 01:32:15;;;;;;;9.18;6.78;;;;;;;;;;5073951;27;97280;-70
2022/06/28 01:34:42;;;;;;;10.50;7.28;;;;;;;;;;5070384;27;96667;-71
2022/06/28 01:37:09;;;;;;;12.02;6.57;;;;;;;;;;5063941;27;97327;-70
2022/06/28 01:39:36;;;;;;;18.02;7.10;;;;;;;;;;5066055;27;97059;-70
2022/06/28 01:42:03;;;;;;;12.60;6.95;;;;;;;;;;5065440;27;96947;-71
2022/06/28 01:44:30;;;;;;;9.82;6.80;;;;;;;;;;5070047;27;97215;-71
2022/06/28 01:46:56;;;;;;;10.68;6.55;;;;;;;;;;5078085;27;96982;-73
2022/06/28 01:49:22;;;;;;;13.60;7.53;;;;;;;;;;5065813;27;96151;-70
2022/06/28 01:51:50;;;;;;;14.75;6.65;;;;;;;;;;5068123;27;96380;-71
2022/06/28 01:54:16;;;;;;;10.85;6.93;;;;;;;;;;5072449;27;96482;-71
2022/06/28 01:56:43;;;;;;;12.63;7.22;;;;;;;;;;5062121;27;99160;-71
2022/06/28 01:59:09;;;;;;;12.23;7.00;;;;;;;;;;5068852;27;96031;-71
2022/06/28 02:01:37;;;;;;;15.63;7.13;;;;;;;;;;5068907;27;96924;-72
2022/06/28 02:04:26;;;;;;;12.32;6.97;;;;;;;;;;5067359;27;97390;-71
2022/06/28 02:06:53;;;;;;;12.15;7.53;;;;;;;;;;5068606;27;95305;-71
2022/06/28 02:09:19;;;;;;;13.70;7.53;;;;;;;;;;5051416;27;96788;-70
2022/06/28 02:11:46;;;;;;;17.48;7.40;;;;;;;;;;5068767;27;96199;-70
2022/06/28 02:14:12;;;;;;;11.77;7.25;;;;;;;;;;5070193;27;95572;-71
2022/06/28 02:16:39;;;;;;;13.40;7.55;;;;;;;;;;5071744;27;96788;-72
2022/06/28 02:19:05;;;;;;;13.05;7.75;;;;;;;;;;5068535;27;97553;-70
2022/06/28 02:21:36;;;;;;;12.90;7.60;;;;;;;;;;5068538;27;95498;-70
2022/06/28 02:24:03;;;;;;;12.57;7.30;;;;;;;;;;5064473;27;97323;-71
2022/06/28 02:26:31;;;;;;;9.18;7.13;;;;;;;;;;5068411;27;97308;-70
2022/06/28 02:28:59;;;;;;;19.60;7.35;;;;;;;;;;5070245;27;96838;-71
2022/06/28 02:31:25;;;;;;;12.32;7.03;;;;;;;;;;5067987;27;97612;-72
2022/06/28 02:33:52;;;;;;;11.13;6.75;;;;;;;;;;5066411;27;95557;-73
2022/06/28 02:41:35;;;;;;;;;;;;;;;;;;5070029;27;96848;-72
2022/06/28 02:44:02;;;;;;;10.82;6.72;;;;;;;;;;5060430;27;126679;-71
2022/06/28 02:46:28;;;;;;;16.63;6.93;;;;;;;;;;5063121;27;95410;-72
2022/06/28 02:48:55;;;;;;;11.48;7.05;;;;;;;;;;5050677;27;96745;-72
2022/06/28 02:51:22;;;;;;;11.60;6.70;;;;;;;;;;5050464;27;97350;-71
2022/06/28 02:53:49;;;;;;;15.32;7.70;;;;;;;;;;5067060;27;95748;-71
2022/06/28 02:56:15;;;;;;;14.52;7.72;;;;;;;;;;5068059;27;95776;-71
2022/06/28 02:58:41;;;;;;;15.45;7.43;;;;;;;;;;5071404;27;97457;-70
2022/06/28 03:01:08;;;;;;;13.65;7.60;;;;;;;;;;5068554;27;96006;-71
2022/06/28 03:03:34;;;;;;;16.65;8.02;;;;;;;;;;5066601;27;96213;-71
2022/06/28 03:06:00;;;;;;;13.05;8.18;;;;;;;;;;5070789;27;95373;-70
2022/06/28 03:08:27;;;;;;;14.40;8.57;;;;;;;;;;5068950;27;96024;-71
2022/06/28 03:10:53;;;;;;;13.55;8.88;;;;;;;;;;5068375;27;97322;-72
2022/06/28 03:13:19;;;;;;;18.58;8.45;;;;;;;;;;5069188;27;95369;-70
2022/06/28 03:15:46;;;;;;;16.30;10.25;;;;;;;;;;5069675;27;96862;-70
2022/06/28 03:18:12;;;;;;;15.38;10.60;;;;;;;;;;5064501;27;96213;-71
2022/06/28 03:20:38;;;;;;;19.42;9.85;;;;;;;;;;5071197;27;95806;-70
2022/06/28 03:23:05;;;;;;;14.27;9.30;;;;;;;;;;5063710;27;97394;-70
2022/06/28 03:25:38;;;;;;;18.00;10.15;;;;;;;;;;5065390;27;95471;-70
2022/06/28 03:28:04;;;;;;;16.17;9.55;;;;;;;;;;5069400;27;96977;-70
2022/06/28 03:30:31;;;;;;;18.30;10.68;;;;;;;;;;5068491;27;97376;-73
2022/06/28 03:32:57;;;;;;;21.40;10.55;;;;;;;;;;5066887;27;95853;-73
2022/06/28 03:35:24;;;;;;;18.80;10.85;;;;;;;;;;5066716;27;97173;-73
2022/06/28 03:37:50;;;;;;;19.63;10.88;;;;;;;;;;5067274;27;97438;-72
2022/06/28 03:40:17;;;;;;;24.95;10.45;;;;;;;;;;5069263;27;95381;-73
2022/06/28 03:42:43;;;;;;;16.65;9.65;;;;;;;;;;5067169;27;96940;-73
2022/06/28 03:45:10;;;;;;;17.15;10.00;;;;;;;;;;5066824;27;95389;-72
2022/06/28 03:47:36;;;;;;;14.43;9.35;;;;;;;;;;5068993;27;96820;-73
2022/06/28 03:50:03;;;;;;;19.05;9.38;;;;;;;;;;5069369;27;97371;-73
2022/06/28 03:52:29;;;;;;;14.82;9.30;;;;;;;;;;5068159;27;95503;-72
2022/06/28 03:54:58;;;;;;;18.42;9.57;;;;;;;;;;5077416;27;96798;-73
2022/06/28 03:57:25;;;;;;;16.23;9.77;;;;;;;;;;5055867;27;98443;-72
2022/06/28 03:59:52;;;;;;;17.52;9.40;;;;;;;;;;5069649;27;96041;-72
2022/06/28 04:02:18;;;;;;;15.43;9.13;;;;;;;;;;5066846;27;96757;-72
2022/06/28 04:04:45;;;;;;;17.42;9.02;;;;;;;;;;5069715;27;96030;-72
2022/06/28 04:07:11;;;;;;;12.85;8.65;;;;;;;;;;5066772;27;97184;-72
2022/06/28 04:09:37;;;;;;;12.63;8.00;;;;;;;;;;5068094;27;97697;-73
2022/06/28 04:12:04;;;;;;;12.13;7.97;;;;;;;;;;5067161;27;95257;-72
2022/06/28 04:14:30;;;;;;;16.20;9.02;;;;;;;;;;5066491;27;97864;-72
2022/06/28 04:16:56;;;;;;;13.52;8.25;;;;;;;;;;5067834;27;98043;-71
2022/06/28 04:19:24;;;;;;;13.32;7.15;;;;;;;;;;5067588;27;95374;-72
2022/06/28 04:21:50;;;;;;;16.98;7.75;;;;;;;;;;5066019;27;96869;-71
2022/06/28 04:24:16;;;;;;;10.93;7.10;;;;;;;;;;5065524;27;97476;-71
2022/06/28 04:26:43;;;;;;;10.40;6.03;;;;;;;;;;5070376;27;95847;-71
2022/06/28 04:29:09;;;;;;;14.15;7.22;;;;;;;;;;5060558;27;97617;-72
2022/06/28 04:31:35;;;;;;;14.23;7.28;;;;;;;;;;5067852;27;95667;-72
2022/06/28 04:34:02;;;;;;;10.93;6.88;;;;;;;;;;5066571;27;96864;-71
2022/06/28 04:36:29;;;;;;;11.98;6.50;;;;;;;;;;5067140;27;97304;-72
2022/06/28 04:38:55;;;;;;;12.30;6.00;;;;;;;;;;5066845;27;96000;-71
2022/06/28 19:58:20;;;;;;;3.83;1.75;;;;;;;;;;4971999;27;1334934;-76
2022/06/28 20:00:47;;;;;;;5.10;2.00;;;;;;;;;;5009682;28;100114;-73
2022/06/28 20:03:14;;;;;;;3.88;1.83;;;;;;;;;;5011146;28;95656;-72
2022/06/28 20:05:40;;;;;;;2.83;1.55;;;;;;;;;;5004854;28;96799;-73
2022/06/28 20:08:08;;;;;;;2.83;1.52;;;;;;;;;;5004754;28;97285;-73
2022/06/28 20:10:35;;;;;;;5.28;1.92;;;;;;;;;;5012327;28;95400;-72
2022/06/28 20:13:02;;;;;;;5.35;1.70;;;;;;;;;;5016952;28;97042;-73
2022/06/28 20:15:28;;;;;;;6.45;1.75;;;;;;;;;;5010131;28;97721;-72
2022/06/28 20:17:55;;;;;;;11.32;2.15;;;;;;;;;;5007861;28;95619;-72
2022/06/28 20:20:21;;;;;;;6.30;1.90;;;;;;;;;;5001197;28;97954;-73
2022/06/28 20:22:53;;;;;;;4.80;1.60;;;;;;;;;;5001279;28;95844;-72
2022/06/28 20:25:20;;;;;;;4.35;1.90;;;;;;;;;;5002859;28;97255;-73
2022/06/28 20:27:47;;;;;;;5.05;1.50;;;;;;;;;;5005363;28;97341;-72
2022/06/28 20:30:14;;;;;;;6.00;1.60;;;;;;;;;;5001994;28;95549;-72
2022/06/28 20:32:40;;;;;;;4.82;1.60;;;;;;;;;;5012696;28;97242;-72
2022/06/28 20:35:07;;;;;;;6.32;2.00;;;;;;;;;;5003853;28;97733;-73
2022/06/28 20:37:33;;;;;;;7.55;1.60;;;;;;;;;;5009693;28;95385;-72
2022/06/28 20:40:00;;;;;;;7.20;1.70;;;;;;;;;;5015642;28;96652;-73
2022/06/28 20:42:26;;;;;;;5.20;2.05;;;;;;;;;;5011315;28;96017;-72
2022/06/28 20:44:54;;;;;;;7.43;2.03;;;;;;;;;;5011272;28;97226;-72
2022/06/28 20:47:21;;;;;;;12.57;2.53;;;;;;;;;;5007519;28;97817;-73
2022/06/28 20:49:52;;;;;;;14.38;2.13;;;;;;;;;;5002904;28;96686;-73
2022/06/28 20:52:18;;;;;;;4.57;1.80;;;;;;;;;;5003621;28;98746;-73
2022/06/28 20:54:45;;;;;;;12.95;2.30;;;;;;;;;;5008455;28;97440;-74
2022/06/28 20:57:11;;;;;;;9.63;2.30;;;;;;;;;;5012049;28;96496;-73
2022/06/28 20:59:37;;;;;;;8.15;2.20;;;;;;;;;;5006898;28;96159;-73
2022/06/28 21:02:04;;;;;;;5.15;1.90;;;;;;;;;;5014945;28;97342;-73
2022/06/28 21:04:31;;;;;;;4.55;2.00;;;;;;;;;;4995380;28;96702;-73
2022/06/28 21:06:57;;;;;;;6.95;2.30;;;;;;;;;;5003740;28;97544;-73
2022/06/28 21:09:24;;;;;;;6.72;2.25;;;;;;;;;;4989697;28;95387;-73
2022/06/28 21:11:50;;;;;;;5.90;2.40;;;;;;;;;;4994513;28;96426;-72
2022/06/28 21:14:17;;;;;;;5.75;2.05;;;;;;;;;;4989703;28;96865;-72
2022/06/28 21:16:44;;;;;;;14.82;2.40;;;;;;;;;;4997147;28;95973;-73
2022/06/28 21:19:11;;;;;;;4.07;2.10;;;;;;;;;;4994104;28;97358;-73
2022/06/28 21:21:37;;;;;;;5.80;2.00;;;;;;;;;;4996765;28;97361;-72
2022/06/28 21:24:04;;;;;;;5.25;2.42;;;;;;;;;;4988053;28;96740;-73
2022/06/28 21:26:34;;;;;;;14.50;2.35;;;;;;;;;;4993962;28;97956;-73
2022/06/28 21:29:01;;;;;;;15.98;3.05;;;;;;;;;;4993986;28;95230;-73
2022/06/28 21:31:27;;;;;;;6.07;2.20;;;;;;;;;;4999902;28;97433;-73
2022/06/28 21:33:53;;;;;;;13.73;2.40;;;;;;;;;;4989159;28;97675;-72
2022/06/28 21:36:20;;;;;;;9.80;2.33;;;;;;;;;;4996982;28;96669;-73
2022/06/28 21:38:47;;;;;;;8.13;2.67;;;;;;;;;;5000107;28;99091;-72
2022/06/28 21:41:13;;;;;;;20.88;2.88;;;;;;;;;;5001247;28;95615;-72
2022/06/28 21:43:40;;;;;;;13.23;2.33;;;;;;;;;;4993732;28;96123;-72
2022/06/28 21:46:09;;;;;;;20.15;3.08;;;;;;;;;;4993986;28;97128;-72
2022/06/28 21:48:36;;;;;;;8.50;2.55;;;;;;;;;;4999408;28;97147;-73
2022/06/28 21:51:02;;;;;;;6.55;2.90;;;;;;;;;;4993617;28;97541;-72
2022/06/28 21:53:29;;;;;;;14.10;2.78;;;;;;;;;;4995096;28;97628;-72
2022/06/28 21:55:56;;;;;;;5.82;2.58;;;;;;;;;;5000316;28;96819;-72
2022/06/28 21:58:22;;;;;;;6.50;2.40;;;;;;;;;;5000746;28;97621;-73
2022/06/28 22:00:49;;;;;;;6.85;2.78;;;;;;;;;;4987525;28;97600;-72
2022/06/28 22:03:16;;;;;;;4.88;2.63;;;;;;;;;;4981975;28;95457;-72
2022/06/28 22:05:43;;;;;;;14.57;2.80;;;;;;;;;;4984520;28;96853;-72
2022/06/28 22:08:11;;;;;;;13.57;2.80;;;;;;;;;;4998667;28;95593;-72
2022/06/28 22:10:37;;;;;;;6.57;2.78;;;;;;;;;;4989426;28;97425;-73
2022/06/28 22:13:04;;;;;;;10.88;2.63;;;;;;;;;;4984977;28;97375;-72
2022/06/28 22:15:34;;;;;;;11.82;3.05;;;;;;;;;;4989707;28;96509;-73
2022/06/28 22:18:00;;;;;;;15.48;3.10;;;;;;;;;;4992967;28;95836;-72
2022/06/28 22:20:27;;;;;;;13.05;2.65;;;;;;;;;;4996566;28;97799;-72
2022/06/28 22:22:53;;;;;;;7.13;2.50;;;;;;;;;;4986837;28;96869;-72
2022/06/28 22:25:20;;;;;;;11.55;3.00;;;;;;;;;;4989580;28;97018;-73
2022/06/28 22:27:55;;;;;;;8.63;2.85;;;;;;;;;;4992273;28;97015;-72
2022/06/28 22:30:22;;;;;;;9.55;3.40;;;;;;;;;;4993065;28;96375;-73
2022/06/28 22:32:49;;;;;;;8.32;2.75;;;;;;;;;;4985930;28;95330;-73
2022/06/28 22:35:16;;;;;;;6.15;2.90;;;;;;;;;;4983665;28;95788;-73
2022/06/28 22:37:50;;;;;;;11.13;2.83;;;;;;;;;;4990680;28;96787;-73
2022/06/28 22:40:18;;;;;;;6.67;3.07;;;;;;;;;;4989936;28;96916;-73
2022/06/28 22:42:45;;;;;;;11.40;2.90;;;;;;;;;;4984180;28;95716;-73
2022/06/28 22:45:11;;;;;;;7.28;3.28;;;;;;;;;;4988178;28;97540;-73
2022/06/28 22:47:38;;;;;;;9.60;3.35;;;;;;;;;;4987131;28;97244;-73
2022/06/28 22:50:04;;;;;;;11.20;3.33;;;;;;;;;;4992956;28;95436;-73
2022/06/28 22:52:31;;;;;;;5.28;2.90;;;;;;;;;;4988179;28;97654;-73
2022/06/28 22:54:57;;;;;;;6.72;3.08;;;;;;;;;;4988816;28;95600;-73
2022/06/28 22:57:24;;;;;;;7.82;3.22;;;;;;;;;;4988934;28;97336;-73
2022/06/28 22:59:50;;;;;;;6.45;3.10;;;;;;;;;;4989750;28;97654;-73
2022/06/28 23:02:16;;;;;;;7.82;3.58;;;;;;;;;;4989927;28;95195;-73
2022/06/28 23:04:43;;;;;;;5.32;3.03;;;;;;;;;;4985870;28;96704;-73
2022/06/28 23:07:09;;;;;;;5.78;3.00;;;;;;;;;;4990007;28;97455;-73
2022/06/28 23:09:35;;;;;;;5.90;3.33;;;;;;;;;;4989862;28;95668;-73
2022/06/28 23:12:02;;;;;;;11.23;2.97;;;;;;;;;;4992174;28;96016;-73
2022/06/28 23:14:29;;;;;;;12.32;3.63;;;;;;;;;;4972412;28;95981;-73
2022/06/28 23:16:55;;;;;;;5.95;3.30;;;;;;;;;;4989623;28;96294;-72
2022/06/28 23:19:22;;;;;;;5.55;3.00;;;;;;;;;;4988991;28;97823;-71
2022/06/28 23:21:48;;;;;;;5.80;3.10;;;;;;;;;;4989868;28;95910;-72
2022/06/28 23:24:18;;;;;;;7.47;3.25;;;;;;;;;;4984863;28;96060;-71
2022/06/28 23:26:48;;;;;;;9.98;2.92;;;;;;;;;;4988042;28;97116;-72
2022/06/28 23:29:15;;;;;;;9.05;3.17;;;;;;;;;;4989793;28;96344;-72
2022/06/28 23:31:42;;;;;;;13.73;3.25;;;;;;;;;;4989072;28;97007;-72
2022/06/28 23:34:08;;;;;;;6.40;2.75;;;;;;;;;;4990674;28;96762;-73
2022/06/28 23:36:35;;;;;;;6.45;3.08;;;;;;;;;;4989391;28;98434;-72
2022/06/28 23:39:02;;;;;;;4.68;2.90;;;;;;;;;;4988881;28;97672;-73
2022/06/28 23:41:28;;;;;;;5.40;3.30;;;;;;;;;;4989481;28;95999;-73
2022/06/28 23:43:54;;;;;;;12.27;3.28;;;;;;;;;;4988143;28;97887;-73
2022/06/28 23:46:21;;;;;;;8.43;3.03;;;;;;;;;;4988307;28;97207;-73
2022/06/28 23:48:47;;;;;;;7.97;3.33;;;;;;;;;;4989429;28;95274;-73
2022/06/28 23:51:14;;;;;;;7.05;3.40;;;;;;;;;;4989316;28;95681;-73
2022/06/28 23:55:12;;;;;;;9.00;3.20;;;;;;;;;;4987820;28;97303;-73
2022/06/28 23:56:26;;;;;;;7.50;3.33;;;;;;;;;;4990556;28;95805;-72
2022/06/28 23:58:53;;;;;;;6.38;3.20;;;;;;;;;;4988054;28;96198;-72
